Time;durP1;ratioP1;P1;durP2;ratioP2;P2;SDS_P1;SDS_P2;PMS_P1;PMS_P2;Temp;Humidity;BMP_temperature;BMP_pressure;BME280_temperature;BME280_humidity;BME280_pressure;Samples;Min_cycle;Max_cycle;Signal;HPM_P1;HPM_P2
2022/07/10 00:02:21;;;;;;;;;3.00;3.00;;;;;20.46;41.90;102064.50;5028583;28;62172;-49
2022/07/10 00:04:46;;;;;;;;;3.00;3.00;;;;;20.42;41.93;102066.44;5034632;28;45660;-52
2022/07/10 00:07:11;;;;;;;;;5.50;5.50;;;;;20.42;42.49;102060.28;5029978;28;46946;-47
2022/07/10 00:09:37;;;;;;;;;5.50;3.50;;;;;20.42;41.84;102062.94;5033955;28;45469;-48
2022/07/10 00:12:02;;;;;;;;;4.00;2.00;;;;;20.41;42.16;102056.72;5026361;28;56750;-47
2022/07/10 00:14:28;;;;;;;;;13.50;9.25;;;;;20.39;42.05;102055.94;5037868;28;45525;-48
2022/07/10 00:16:53;;;;;;;;;19.00;14.50;;;;;20.37;41.84;102065.81;5036096;28;45434;-52
2022/07/10 00:19:18;;;;;;;;;22.25;18.25;;;;;20.36;42.06;102068.53;5035256;28;68440;-49
2022/07/10 00:21:44;;;;;;;;;35.00;27.25;;;;;20.30;42.39;102064.38;5036495;28;58933;-50
2022/07/10 00:24:10;;;;;;;;;35.75;28.75;;;;;20.24;42.10;102062.00;5029393;28;45427;-50
2022/07/10 00:26:35;;;;;;;;;31.25;27.50;;;;;20.21;42.31;102072.78;5038420;28;46131;-50
2022/07/10 00:29:01;;;;;;;;;23.25;21.25;;;;;20.18;42.20;102073.75;5034364;28;45510;-51
2022/07/10 00:31:26;;;;;;;;;21.50;20.00;;;;;20.12;42.54;102076.72;5037052;28;60198;-48
2022/07/10 00:33:51;;;;;;;;;19.25;16.25;;;;;20.07;42.62;102073.41;5024674;28;63969;-50
2022/07/10 00:36:17;;;;;;;;;14.00;14.00;;;;;20.04;42.52;102076.19;5027677;28;71586;-50
2022/07/10 00:38:42;;;;;;;;;13.75;11.50;;;;;20.00;42.94;102082.59;5026020;28;61009;-50
2022/07/10 00:41:07;;;;;;;;;11.50;8.25;;;;;19.96;42.33;102079.22;5032194;28;63903;-46
2022/07/10 00:43:55;;;;;;;;;15.50;10.00;;;;;19.90;42.89;102075.03;5022940;28;45515;-50
2022/07/10 00:46:21;;;;;;;;;11.25;7.00;;;;;19.82;43.12;102071.84;5029194;28;45352;-51
2022/07/10 00:48:47;;;;;;;;;6.00;5.50;;;;;19.78;43.14;102080.00;5027169;28;45352;-49
2022/07/10 00:51:13;;;;;;;;;7.50;6.00;;;;;19.70;43.34;102065.25;5029024;28;45394;-49
2022/07/10 00:53:39;;;;;;;;;4.75;3.50;;;;;19.71;43.56;102063.47;5032086;28;45388;-50
2022/07/10 00:56:06;;;;;;;;;4.00;4.00;;;;;19.67;43.46;102062.75;5032454;28;46365;-51
2022/07/10 00:58:32;;;;;;;;;4.00;4.00;;;;;19.64;43.74;102067.34;5035824;28;45289;-48
2022/07/10 01:00:57;;;;;;;;;3.25;2.00;;;;;19.58;44.04;102073.75;5028523;28;45439;-49
2022/07/10 01:03:23;;;;;;;;;5.00;2.00;;;;;19.52;43.89;102066.91;5026776;28;67333;-48
2022/07/10 01:05:48;;;;;;;;;4.00;3.00;;;;;19.47;44.27;102057.44;5031558;28;76090;-47
2022/07/10 01:08:13;;;;;;;;;3.75;2.00;;;;;19.44;45.07;102057.56;5027887;28;45358;-50
2022/07/10 01:10:39;;;;;;;;;4.50;3.25;;;;;19.41;44.90;102057.72;5033178;28;58511;-48
2022/07/10 01:13:05;;;;;;;;;3.00;1.00;;;;;19.39;44.74;102055.13;5033666;28;45300;-51
2022/07/10 01:15:32;;;;;;;;;2.00;2.00;;;;;19.39;44.79;102067.50;5052617;28;77417;-48
2022/07/10 01:17:58;;;;;;;;;2.25;2.25;;;;;19.38;44.94;102057.84;5028431;28;45736;-47
2022/07/10 01:20:31;;;;;;;;;3.00;3.00;;;;;19.35;45.21;102058.81;5037140;28;45241;-49
2022/07/10 01:22:56;;;;;;;;;7.00;4.00;;;;;19.32;45.26;102057.16;5040684;28;45516;-51
2022/07/10 01:25:21;;;;;;;;;2.50;2.00;;;;;19.31;45.07;102060.75;5039165;28;75044;-51
2022/07/10 01:27:47;;;;;;;;;3.50;3.00;;;;;19.29;44.84;102059.94;5032860;28;45334;-52
2022/07/10 01:30:12;;;;;;;;;3.50;1.75;;;;;19.28;45.13;102062.66;5036915;28;54913;-51
2022/07/10 01:32:39;;;;;;;;;3.50;2.50;;;;;19.26;45.44;102054.75;5026348;28;64832;-47
2022/07/10 01:35:05;;;;;;;;;3.50;2.75;;;;;19.24;45.79;102055.78;5032850;28;45560;-48
2022/07/10 01:37:30;;;;;;;;;4.75;3.75;;;;;19.20;45.97;102060.34;5028378;28;45760;-50
2022/07/10 01:39:55;;;;;;;;;5.75;4.00;;;;;19.18;45.79;102054.25;5032729;28;64185;-51
2022/07/10 01:42:21;;;;;;;;;5.75;3.00;;;;;19.17;45.83;102055.16;5034843;28;45423;-51
2022/07/10 01:44:46;;;;;;;;;4.50;3.75;;;;;19.15;45.94;102049.06;5033389;28;65810;-51
2022/07/10 01:47:11;;;;;;;;;2.25;2.00;;;;;19.12;46.56;102050.06;5034784;28;71407;-50
2022/07/10 01:49:37;;;;;;;;;5.75;4.00;;;;;19.12;46.19;102057.13;5033779;28;59572;-50
2022/07/10 01:52:03;;;;;;;;;4.00;2.50;;;;;19.09;45.67;102055.50;5037572;28;45399;-52
2022/07/10 01:54:28;;;;;;;;;2.50;2.00;;;;;19.03;45.62;102053.06;5035357;28;46300;-48
2022/07/10 01:56:53;;;;;;;;;3.50;2.50;;;;;18.99;46.32;102061.25;5036269;28;73268;-48
2022/07/10 01:59:19;;;;;;;;;2.50;2.00;;;;;18.95;46.32;102058.72;5029468;28;57229;-51
2022/07/10 02:01:44;;;;;;;;;7.00;2.00;;;;;18.91;46.44;102058.88;5032344;28;45322;-48
2022/07/10 02:06:54;;;;;;;;;4.00;3.25;;;;;18.78;46.61;102066.44;5028490;28;45252;-47
2022/07/10 02:09:19;;;;;;;;;3.00;3.00;;;;;18.75;46.79;102061.25;5027998;28;65441;-48
2022/07/10 02:11:44;;;;;;;;;4.50;2.25;;;;;18.72;46.58;102067.56;5037077;28;45289;-50
2022/07/10 02:14:10;;;;;;;;;2.25;2.25;;;;;18.69;46.69;102064.19;5031808;28;47065;-47
2022/07/10 02:16:35;;;;;;;;;3.00;2.75;;;;;18.65;46.84;102065.22;5040177;28;45118;-48
2022/07/10 02:19:01;;;;;;;;;3.00;2.00;;;;;18.63;46.58;102067.06;5027896;28;45471;-50
2022/07/10 02:21:27;;;;;;;;;4.25;3.00;;;;;18.60;46.82;102058.31;5040366;28;45303;-51
2022/07/10 02:23:52;;;;;;;;;3.50;2.75;;;;;18.58;46.59;102061.94;5037682;28;74792;-50
2022/07/10 02:26:18;;;;;;;;;3.50;2.00;;;;;18.55;46.92;102052.31;5033505;28;45359;-46
2022/07/10 02:28:43;;;;;;;;;5.50;4.00;;;;;18.52;47.15;102056.88;5037089;28;45533;-51
2022/07/10 02:31:08;;;;;;;;;4.00;3.00;;;;;18.49;47.18;102049.91;5028455;28;70898;-46
2022/07/10 02:33:36;;;;;;;;;3.00;3.00;;;;;18.49;47.33;102047.25;5011059;28;45309;-52
2022/07/10 02:36:02;;;;;;;;;2.00;2.00;;;;;18.47;47.38;102041.16;5032624;28;45348;-50
2022/07/10 02:38:27;;;;;;;;;3.00;3.00;;;;;18.47;47.14;102043.81;5029332;28;45371;-52
2022/07/10 02:40:53;;;;;;;;;3.50;2.75;;;;;18.45;47.00;102039.47;5036935;28;45439;-51
2022/07/10 02:43:18;;;;;;;;;9.00;9.00;;;;;18.43;47.80;102036.03;5025587;28;75968;-52
2022/07/10 02:45:43;;;;;;;;;3.75;3.75;;;;;18.38;47.52;102034.44;5034308;28;61556;-50
2022/07/10 02:48:09;;;;;;;;;3.50;3.00;;;;;18.38;46.99;102037.09;5036272;28;45753;-49
2022/07/10 02:50:34;;;;;;;;;4.75;3.00;;;;;18.34;47.28;102034.59;5030890;28;68697;-52
2022/07/10 02:52:59;;;;;;;;;5.25;3.75;;;;;18.30;47.77;102033.84;5022593;28;72891;-46
2022/07/10 02:55:25;;;;;;;;;5.50;3.00;;;;;18.29;47.65;102029.50;5031101;28;45511;-50
2022/07/10 02:57:50;;;;;;;;;3.75;3.75;;;;;18.29;47.66;102025.97;5040353;28;45476;-51
2022/07/10 03:00:15;;;;;;;;;6.75;3.00;;;;;18.28;47.78;102029.56;5032184;28;67046;-52
2022/07/10 03:02:41;;;;;;;;;2.50;2.00;;;;;18.27;47.96;102028.66;5027353;28;48464;-51
2022/07/10 03:05:07;;;;;;;;;3.25;3.25;;;;;18.27;47.76;102030.47;5032660;28;45395;-50
2022/07/10 03:07:33;;;;;;;;;2.00;2.00;;;;;18.26;47.89;102034.06;5030251;28;45425;-49
2022/07/10 03:09:58;;;;;;;;;5.75;4.00;;;;;18.25;48.26;102032.31;5033531;28;45545;-51
2022/07/10 03:12:23;;;;;;;;;2.00;2.00;;;;;18.23;48.57;102031.50;5033814;28;67277;-51
2022/07/10 03:14:49;;;;;;;;;4.75;2.75;;;;;18.20;48.43;102033.38;5038331;28;47402;-51
2022/07/10 03:17:14;;;;;;;;;3.00;3.00;;;;;18.17;47.94;102038.78;5036319;28;45502;-49
2022/07/10 03:19:39;;;;;;;;;4.75;3.50;;;;;18.14;47.74;102032.72;5037900;28;59130;-46
2022/07/10 03:22:05;;;;;;;;;3.50;3.25;;;;;18.13;48.31;102025.69;5038246;28;74781;-48
2022/07/10 03:24:30;;;;;;;;;5.00;3.75;;;;;18.11;48.24;102020.44;5030637;28;46595;-47
2022/07/10 03:26:55;;;;;;;;;4.25;3.25;;;;;18.08;48.26;102017.94;5037562;28;45290;-48
2022/07/10 03:29:21;;;;;;;;;4.00;3.25;;;;;18.07;47.98;102023.28;5037902;28;45225;-50
2022/07/10 03:31:46;;;;;;;;;6.00;4.75;;;;;18.04;48.44;102024.25;5036484;28;48209;-47
2022/07/10 03:34:12;;;;;;;;;5.25;3.00;;;;;18.00;48.74;102020.00;5025866;28;45353;-48
2022/07/10 03:36:37;;;;;;;;;3.75;2.25;;;;;17.99;48.24;102026.25;5025746;28;61697;-49
2022/07/10 03:39:02;;;;;;;;;5.25;4.25;;;;;17.93;48.62;102029.94;5024906;28;67331;-47
2022/07/10 03:41:28;;;;;;;;;3.75;2.75;;;;;17.88;48.96;102031.03;5034623;28;46953;-48
2022/07/10 03:43:53;;;;;;;;;6.00;3.50;;;;;17.81;48.84;102030.38;5025326;28;45206;-49
2022/07/10 03:46:18;;;;;;;;;5.50;4.25;;;;;17.76;48.70;102021.72;5034879;28;64385;-46
2022/07/10 03:48:44;;;;;;;;;3.50;3.50;;;;;17.74;49.20;102013.88;5028715;28;45388;-48
2022/07/10 03:51:09;;;;;;;;;3.75;3.50;;;;;17.73;49.44;102017.41;5025387;28;63140;-49
2022/07/10 03:53:35;;;;;;;;;5.75;3.50;;;;;17.73;49.59;102017.41;5031387;28;65018;-51
2022/07/10 03:56:00;;;;;;;;;3.00;3.00;;;;;17.73;49.84;102020.06;5033609;28;45359;-46
2022/07/10 03:58:26;;;;;;;;;2.75;2.75;;;;;17.74;49.42;102021.81;5028056;28;45681;-46
2022/07/10 04:00:51;;;;;;;;;2.75;2.75;;;;;17.75;49.29;102025.31;5046752;28;47158;-47
2022/07/10 04:03:17;;;;;;;;;4.75;2.75;;;;;17.75;49.99;102022.66;5033840;28;73140;-52
2022/07/10 04:05:42;;;;;;;;;5.00;4.50;;;;;17.77;49.09;102016.38;5032960;28;45301;-51
2022/07/10 04:08:08;;;;;;;;;4.00;4.00;;;;;17.76;49.78;102019.97;5038121;28;45480;-52
2022/07/10 04:10:34;;;;;;;;;7.00;3.00;;;;;17.76;49.15;102022.63;5033954;28;46725;-50
2022/07/10 04:13:00;;;;;;;;;5.25;4.00;;;;;17.76;49.07;102024.38;5036114;28;45248;-52
2022/07/10 04:15:26;;;;;;;;;4.75;2.75;;;;;17.75;49.21;102022.66;5035457;28;45524;-48
2022/07/10 04:17:51;;;;;;;;;6.00;4.25;;;;;17.74;49.60;102023.56;5031641;28;45333;-52
2022/07/10 04:20:17;;;;;;;;;3.25;2.50;;;;;17.74;49.46;102032.41;5036996;28;46232;-50
2022/07/10 04:22:43;;;;;;;;;3.50;3.25;;;;;17.72;49.73;102028.06;5035152;28;45383;-51
2022/07/10 04:25:09;;;;;;;;;3.00;3.00;;;;;17.70;49.48;102027.25;5028384;28;45559;-50
2022/07/10 04:27:34;;;;;;;;;5.50;5.00;;;;;17.68;49.27;102026.47;5036549;28;45398;-47
2022/07/10 04:30:00;;;;;;;;;3.75;3.50;;;;;17.65;49.44;102024.75;5036024;28;72825;-46
2022/07/10 04:32:27;;;;;;;;;7.50;5.25;;;;;17.62;49.62;102028.41;5035254;28;45594;-46
2022/07/10 04:34:53;;;;;;;;;3.00;3.00;;;;;17.61;49.78;102033.75;5024972;28;45407;-48
2022/07/10 04:37:18;;;;;;;;;4.25;2.75;;;;;17.60;49.67;102027.59;5034973;28;45394;-53
2022/07/10 04:39:44;;;;;;;;;13.75;11.50;;;;;17.61;49.17;102033.75;5027728;28;61433;-50
2022/07/10 04:42:09;;;;;;;;;5.50;3.50;;;;;17.56;50.36;102035.69;5031421;28;45479;-48
2022/07/10 04:44:36;;;;;;;;;6.25;3.25;;;;;17.58;49.66;102036.50;5029853;28;59814;-49
2022/07/10 04:47:01;;;;;;;;;5.00;1.50;;;;;17.60;50.15;102037.31;5035931;28;45297;-47
2022/07/10 04:49:27;;;;;;;;;3.75;3.00;;;;;17.61;49.93;102033.75;5031261;28;47348;-48
2022/07/10 04:51:52;;;;;;;;;6.25;5.00;;;;;17.65;49.84;102033.59;5032367;28;45482;-48
2022/07/10 04:54:17;;;;;;;;;2.50;2.50;;;;;17.70;50.00;102029.91;5029412;28;68935;-49
2022/07/10 04:56:43;;;;;;;;;4.50;3.00;;;;;17.73;50.01;102035.09;5032586;28;61395;-48
2022/07/10 04:59:09;;;;;;;;;5.75;4.25;;;;;17.75;49.72;102028.81;5029682;28;45331;-50
2022/07/10 05:01:35;;;;;;;;;4.50;3.00;;;;;17.79;49.90;102024.28;5031802;28;72934;-48
2022/07/10 05:04:00;;;;;;;;;4.75;3.25;;;;;17.80;49.84;102029.50;5026721;28;45414;-49
2022/07/10 05:06:26;;;;;;;;;5.50;5.00;;;;;17.83;49.84;102028.56;5031887;28;45320;-51
2022/07/10 05:08:51;;;;;;;;;4.50;4.00;;;;;17.86;49.85;102025.81;5030497;28;74427;-50
2022/07/10 05:11:16;;;;;;;;;4.00;3.75;;;;;17.88;49.73;102033.69;5035960;28;45372;-51
2022/07/10 05:13:48;;;;;;;;;5.25;3.50;;;;;17.93;49.43;102045.00;5033735;28;67322;-50
2022/07/10 05:16:16;;;;;;;;;6.25;3.50;;;;;17.98;49.43;102043.03;5034391;28;45306;-48
2022/07/10 05:18:42;;;;;;;;;4.50;4.25;;;;;18.02;49.42;102028.75;5029948;28;45360;-47
2022/07/10 05:21:07;;;;;;;;;5.25;3.75;;;;;18.06;49.85;102035.69;5035699;28;45359;-47
2022/07/10 05:23:33;;;;;;;;;4.00;3.75;;;;;18.11;49.37;102041.63;5027883;28;45383;-48
2022/07/10 05:25:59;;;;;;;;;4.00;3.00;;;;;18.16;49.43;102038.81;5031033;28;45246;-49
2022/07/10 05:28:24;;;;;;;;;5.75;4.50;;;;;18.21;49.13;102036.88;5027785;28;49558;-46
2022/07/10 05:30:49;;;;;;;;;3.75;3.75;;;;;18.25;49.18;102038.47;5033487;28;58240;-46
2022/07/10 05:33:15;;;;;;;;;4.75;3.50;;;;;18.28;48.91;102040.16;5032614;28;45587;-51
2022/07/10 05:35:41;;;;;;;;;6.25;3.75;;;;;18.32;48.81;102039.09;5030290;28;45297;-51
2022/07/10 05:38:07;;;;;;;;;4.75;4.75;;;;;18.34;48.69;102032.84;5033780;28;65555;-49
2022/07/10 05:40:32;;;;;;;;;6.75;4.00;;;;;18.41;48.87;102046.69;5015164;28;45325;-49
2022/07/10 05:42:58;;;;;;;;;4.25;2.75;;;;;18.47;48.60;102046.47;5027956;28;47695;-50
2022/07/10 05:45:23;;;;;;;;;0.50;0.50;;;;;18.50;48.58;102049.00;5031061;28;45600;-50
2022/07/10 05:47:48;;;;;;;;;5.25;3.50;;;;;18.56;48.21;102046.09;5053360;28;47573;-47
2022/07/10 05:50:14;;;;;;;;;4.25;2.50;;;;;18.60;48.03;102053.00;5029900;28;45449;-48
2022/07/10 05:52:39;;;;;;;;;3.00;3.00;;;;;18.65;48.11;102049.31;5029573;28;45284;-46
2022/07/10 05:55:05;;;;;;;;;5.00;3.75;;;;;18.67;47.85;102047.47;5029140;28;45511;-48
2022/07/10 05:57:31;;;;;;;;;4.00;3.00;;;;;18.71;47.86;102059.66;5016769;28;46958;-47
2022/07/10 05:59:57;;;;;;;;;4.50;2.00;;;;;18.76;47.56;102055.91;5034296;28;45320;-49
2022/07/10 06:02:22;;;;;;;;;2.75;2.50;;;;;18.81;47.73;102058.38;5030600;28;45242;-52
2022/07/10 06:04:47;;;;;;;;;3.50;3.50;;;;;18.86;47.37;102047.63;5038070;28;45662;-50
2022/07/10 06:07:13;;;;;;;;;3.00;3.00;;;;;18.89;47.34;102053.66;5032444;28;45478;-48
2022/07/10 06:09:38;;;;;;;;;4.75;4.00;;;;;18.92;47.40;102056.16;5039559;28;45404;-50
2022/07/10 06:12:04;;;;;;;;;4.00;4.00;;;;;18.93;47.29;102054.41;5031466;28;48806;-47
2022/07/10 06:14:29;;;;;;;;;7.75;4.25;;;;;18.98;47.14;102057.69;5039370;28;45463;-48
2022/07/10 06:16:54;;;;;;;;;5.75;2.00;;;;;19.04;47.13;102051.31;5037805;28;46444;-49
2022/07/10 06:19:20;;;;;;;;;6.00;3.00;;;;;19.08;47.04;102055.53;5027929;28;73337;-48
2022/07/10 06:21:45;;;;;;;;;5.00;3.00;;;;;19.15;46.73;102054.38;5041006;28;45362;-48
2022/07/10 06:24:11;;;;;;;;;2.00;2.00;;;;;19.19;46.76;102050.63;5035879;28;45411;-48
2022/07/10 06:26:36;;;;;;;;;4.25;3.50;;;;;19.24;46.66;102047.81;5034541;28;45443;-47
2022/07/10 06:29:02;;;;;;;;;3.75;2.50;;;;;19.27;46.68;102043.22;5032407;28;45388;-46
2022/07/10 06:31:28;;;;;;;;;7.00;5.00;;;;;19.31;46.41;102043.97;5034563;28;45335;-46
2022/07/10 06:33:53;;;;;;;;;3.00;2.25;;;;;19.33;46.45;102042.94;5028844;28;45260;-48
2022/07/10 06:36:19;;;;;;;;;3.25;3.00;;;;;19.40;46.58;102048.00;5036676;28;45913;-46
2022/07/10 06:38:44;;;;;;;;;4.50;3.00;;;;;19.46;45.99;102051.28;5028767;28;62755;-46
2022/07/10 06:41:09;;;;;;;;;2.25;2.00;;;;;19.50;45.87;102047.53;5030905;28;65708;-49
2022/07/10 06:43:35;;;;;;;;;2.75;2.00;;;;;19.52;45.66;102055.44;5030200;28;45162;-46
2022/07/10 06:46:00;;;;;;;;;4.50;3.75;;;;;19.54;45.50;102048.28;5046124;28;48468;-45
2022/07/10 06:48:26;;;;;;;;;4.25;3.00;;;;;19.54;45.31;102045.63;5026293;28;45203;-49
2022/07/10 06:50:52;;;;;;;;;2.00;2.00;;;;;19.56;45.65;102048.22;5038840;28;45383;-46
2022/07/10 06:53:17;;;;;;;;;3.50;1.75;;;;;19.57;45.54;102055.25;5038646;28;45688;-47
2022/07/10 06:55:43;;;;;;;;;3.00;2.00;;;;;19.57;45.10;102053.47;5036219;28;46071;-45
2022/07/10 06:58:08;;;;;;;;;3.75;3.00;;;;;19.60;45.00;102053.31;5029190;28;45298;-45
2022/07/10 07:00:34;;;;;;;;;4.75;2.50;;;;;19.63;45.19;102052.31;5027879;28;68662;-50
2022/07/10 07:02:59;;;;;;;;;4.00;3.75;;;;;19.66;44.78;102044.22;5035850;28;45482;-52
2022/07/10 07:05:24;;;;;;;;;4.00;2.00;;;;;19.68;44.50;102048.53;5028438;28;75394;-50
2022/07/10 07:07:50;;;;;;;;;3.00;3.00;;;;;19.72;44.66;102051.91;5029863;28;46254;-47
2022/07/10 07:10:15;;;;;;;;;3.00;1.50;;;;;19.77;44.54;102049.94;5029117;28;45434;-50
2022/07/10 07:12:41;;;;;;;;;2.00;2.00;;;;;19.81;44.34;102055.97;5031462;28;45340;-50
2022/07/10 07:15:07;;;;;;;;;3.00;3.00;;;;;19.86;44.32;102061.94;5033185;28;45190;-50
2022/07/10 07:17:45;;;;;;;;;4.75;2.25;;;;;19.91;43.93;102060.81;5032547;28;45388;-48
2022/07/10 07:23:10;;;;;;;;;2.50;2.00;;;;;20.01;44.07;102047.97;5037937;28;45432;-48
2022/07/10 07:25:38;;;;;;;;;2.50;1.50;;;;;20.06;43.92;102047.75;5039073;28;46295;-49
2022/07/10 07:28:03;;;;;;;;;2.50;2.50;;;;;20.12;43.74;102050.13;5040812;28;45792;-51
2022/07/10 07:30:29;;;;;;;;;2.00;2.00;;;;;20.19;43.78;102048.91;5033806;28;45685;-46
2022/07/10 07:32:55;;;;;;;;;3.00;3.00;;;;;20.23;43.42;102052.28;5036485;28;45437;-52
2022/07/10 07:35:20;;;;;;;;;2.50;2.50;;;;;20.28;43.38;102042.31;5033122;28;46135;-50
2022/07/10 07:37:47;;;;;;;;;0.75;0.75;;;;;20.33;43.14;102039.41;5032368;28;45202;-49
2022/07/10 07:40:16;;;;;;;;;3.75;2.00;;;;;20.38;43.29;102040.06;5032842;28;45533;-50
2022/07/10 07:42:42;;;;;;;;;5.75;3.00;;;;;20.41;43.18;102030.16;5025655;28;45377;-47
2022/07/10 07:45:08;;;;;;;;;3.75;2.00;;;;;20.45;42.62;102031.75;5029925;28;46439;-50
2022/07/10 07:47:56;;;;;;;;;3.00;3.00;;;;;20.51;42.60;102027.06;5023938;28;45229;-49
2022/07/10 07:50:27;;;;;;;;;4.50;2.75;;;;;20.57;42.71;102022.28;5030123;28;45515;-48
2022/07/10 07:52:53;;;;;;;;;3.75;2.75;;;;;20.63;42.29;102022.03;5023180;28;45431;-48
2022/07/10 07:55:19;;;;;;;;;4.75;2.25;;;;;20.65;42.49;102012.19;5026448;28;46232;-47
2022/07/10 07:57:45;;;;;;;;;3.00;3.00;;;;;20.73;42.18;102024.25;5028522;28;45266;-47
2022/07/10 08:00:12;;;;;;;;;2.00;2.00;;;;;20.79;41.71;102024.81;5026590;28;45334;-47
2022/07/10 08:02:38;;;;;;;;;3.00;3.00;;;;;20.84;41.92;102029.88;5028289;28;45661;-47
2022/07/10 08:05:07;;;;;;;;;2.00;2.00;;;;;20.91;41.70;102023.34;5015049;28;45388;-47
2022/07/10 08:07:37;;;;;;;;;5.00;3.00;;;;;20.98;41.54;102021.22;5038058;28;46183;-49
2022/07/10 08:10:04;;;;;;;;;4.00;4.00;;;;;21.05;41.62;102018.19;5036182;28;45516;-47
2022/07/10 08:12:29;;;;;;;;;4.50;2.50;;;;;21.11;41.03;102017.00;5035626;28;45502;-49
2022/07/10 08:14:54;;;;;;;;;3.75;3.25;;;;;21.18;40.87;102015.75;5025726;28;46387;-48
2022/07/10 08:17:21;;;;;;;;;3.00;3.00;;;;;21.25;40.86;102024.28;5028549;28;45414;-48
2022/07/10 08:19:46;;;;;;;;;2.00;1.75;;;;;21.33;40.48;102010.56;5028427;28;45814;-47
2022/07/10 08:22:12;;;;;;;;;2.00;2.00;;;;;21.41;40.60;102014.56;5047999;28;45517;-48
2022/07/10 08:24:37;;;;;;;;;3.50;2.50;;;;;21.48;40.92;102019.59;5030934;28;75141;-48
2022/07/10 08:27:03;;;;;;;;;4.00;2.25;;;;;21.52;40.98;102014.03;5027507;28;71878;-51
2022/07/10 08:29:28;;;;;;;;;3.00;3.00;;;;;21.51;40.29;102014.94;5034064;28;45478;-49
2022/07/10 08:31:53;;;;;;;;;3.00;3.00;;;;;21.53;40.30;102017.53;5028447;28;51830;-49
2022/07/10 08:34:19;;;;;;;;;3.50;3.50;;;;;21.58;40.39;102016.38;5027358;28;64704;-48
2022/07/10 08:36:44;;;;;;;;;4.00;3.00;;;;;21.64;40.33;102014.31;5033791;28;46036;-48
2022/07/10 08:39:09;;;;;;;;;4.00;3.75;;;;;21.69;39.65;102014.94;5025547;28;45167;-46
2022/07/10 08:41:36;;;;;;;;;3.75;2.25;;;;;21.77;39.53;102015.38;5035662;28;59801;-50
2022/07/10 08:44:02;;;;;;;;;4.50;3.00;;;;;21.82;39.83;102008.00;5023345;28;45648;-47
2022/07/10 08:46:27;;;;;;;;;3.00;2.50;;;;;21.89;39.68;102009.38;5029885;28;45580;-49
2022/07/10 08:48:54;;;;;;;;;3.00;2.25;;;;;21.94;39.11;102007.34;5033297;28;45545;-49
2022/07/10 08:51:26;;;;;;;;;5.00;3.25;;;;;22.00;39.42;101999.00;5031097;28;45365;-47
2022/07/10 08:53:51;;;;;;;;;5.00;2.00;;;;;22.06;38.74;102000.47;5031029;28;45435;-50
2022/07/10 08:56:17;;;;;;;;;3.50;2.00;;;;;22.12;39.01;102001.94;5029031;28;45439;-48
2022/07/10 08:58:42;;;;;;;;;4.00;2.25;;;;;22.16;38.63;101996.34;5026814;28;64497;-49
2022/07/10 09:01:07;;;;;;;;;3.00;3.00;;;;;22.20;38.34;101991.69;5051228;28;45328;-49
2022/07/10 09:03:33;;;;;;;;;2.00;2.00;;;;;22.22;38.89;101983.59;5031112;28;45553;-49
2022/07/10 09:05:58;;;;;;;;;3.50;3.50;;;;;22.18;38.73;101980.25;5034381;28;45487;-50
2022/07/10 09:08:30;;;;;;;;;2.00;2.00;;;;;22.17;37.96;101987.41;5031459;28;62876;-48
2022/07/10 09:11:15;;;;;;;;;2.00;2.00;;;;;22.22;38.39;101976.47;5035562;28;45537;-51
2022/07/10 09:13:53;;;;;;;;;2.00;2.00;;;;;22.29;38.50;101977.00;5026080;28;46328;-51
2022/07/10 09:16:23;;;;;;;;;3.00;3.00;;;;;22.35;37.79;101969.53;5007978;28;45574;-49
2022/07/10 09:18:48;;;;;;;;;3.75;2.50;;;;;22.40;37.70;101971.94;5032681;28;45402;-48
2022/07/10 09:21:14;;;;;;;;;4.00;3.25;;;;;22.47;37.69;101967.09;5028190;28;45462;-47
2022/07/10 09:23:39;;;;;;;;;4.25;3.00;;;;;22.54;37.59;101969.34;5027059;28;46380;-51
2022/07/10 09:26:05;;;;;;;;;3.00;3.00;;;;;22.62;37.06;101968.88;5025926;28;56554;-49
2022/07/10 09:28:30;;;;;;;;;3.25;3.25;;;;;22.69;37.71;101964.06;5027758;28;45270;-51
2022/07/10 09:30:56;;;;;;;;;4.00;2.75;;;;;22.79;37.50;101973.25;5029618;28;45365;-52
2022/07/10 09:33:25;;;;;;;;;3.25;3.00;;;;;22.86;37.06;101963.91;5033789;28;45545;-51
2022/07/10 09:36:13;;;;;;;;;3.25;2.25;;;;;22.96;36.95;101969.56;5036460;28;45455;-50
2022/07/10 09:38:45;;;;;;;;;2.50;2.00;;;;;23.07;36.92;101979.63;5040739;28;45510;-48
2022/07/10 09:41:18;;;;;;;;;3.25;2.25;;;;;23.16;36.81;101963.06;5040275;28;45406;-45
2022/07/10 09:43:44;;;;;;;;;1.00;1.00;;;;;23.28;37.05;101965.00;5026884;28;46450;-49
2022/07/10 09:46:10;;;;;;;;;8.00;6.00;;;;;23.50;36.65;101972.53;5036366;28;45582;-47
2022/07/10 09:48:35;;;;;;;;;2.00;2.00;;;;;24.04;36.16;101970.97;5034167;28;55719;-46
2022/07/10 09:51:01;;;;;;;;;2.25;2.25;;;;;25.10;35.42;101969.31;5035335;28;70287;-44
2022/07/10 09:53:27;;;;;;;;;2.00;2.00;;;;;26.76;33.76;101963.72;5035770;28;45952;-46
2022/07/10 09:55:54;;;;;;;;;3.00;2.00;;;;;28.46;31.88;101961.88;5029619;28;71110;-50
2022/07/10 09:58:22;;;;;;;;;4.50;2.00;;;;;30.09;30.46;101958.53;5028044;28;63594;-48
2022/07/10 10:00:48;;;;;;;;;1.50;1.50;;;;;31.70;29.44;101961.47;5034548;28;56284;-49
2022/07/10 10:03:14;;;;;;;;;1.50;1.00;;;;;33.10;27.48;101957.38;5037059;28;46181;-47
2022/07/10 10:06:15;;;;;;;;;2.25;1.00;;;;;34.63;26.17;101951.94;5036985;28;46840;-47
2022/07/10 10:09:07;;;;;;;;;4.00;1.00;;;;;35.75;24.14;101947.41;5029749;28;45650;-49
2022/07/10 10:11:35;;;;;;;;;0.50;0.50;;;;;37.05;23.05;101949.31;5035213;28;45582;-50
2022/07/10 10:14:01;;;;;;;;;1.00;1.00;;;;;38.05;23.00;101958.78;5032239;28;45510;-47
2022/07/10 10:16:27;;;;;;;;;1.00;1.00;;;;;38.83;20.59;101949.84;5029911;28;45324;-49
2022/07/10 10:21:48;;;;;;;;;2.25;0.50;;;;;40.04;18.76;101953.00;5020222;28;45342;-48
2022/07/10 10:24:14;;;;;;;;;1.50;1.50;;;;;40.63;19.63;101942.28;5032806;28;75716;-50
2022/07/10 10:26:40;;;;;;;;;1.00;1.00;;;;;41.06;19.03;101938.19;5028551;28;45739;-47
2022/07/10 10:29:06;;;;;;;;;0.00;0.00;;;;;41.28;18.29;101944.31;5036436;28;45438;-45
2022/07/10 10:31:32;;;;;;;;;2.00;1.00;;;;;41.63;17.95;101938.41;5041247;28;45284;-48
2022/07/10 10:34:00;;;;;;;;;3.00;1.75;;;;;41.77;17.59;101931.78;5031593;28;46978;-50
2022/07/10 10:36:47;;;;;;;;;2.00;2.00;;;;;42.07;16.67;101929.31;5031109;28;45706;-49
2022/07/10 10:39:13;;;;;;;;;2.00;0.50;;;;;42.40;17.14;101916.34;5038715;28;45502;-48
2022/07/10 10:41:49;;;;;;;;;1.00;1.00;;;;;42.75;16.26;101929.56;5041140;28;45387;-52
2022/07/10 10:44:16;;;;;;;;;0.75;0.75;;;;;43.03;16.75;101921.66;5027801;28;46253;-52
2022/07/10 10:46:50;;;;;;;;;0.00;0.00;;;;;43.22;15.44;101925.22;5034009;28;45555;-48
2022/07/10 10:49:22;;;;;;;;;2.00;1.00;;;;;43.35;16.06;101924.28;5028055;28;45431;-50
2022/07/10 10:52:06;;;;;;;;;0.75;0.75;;;;;43.86;15.82;101918.47;5035103;28;45486;-50
2022/07/10 10:54:57;;;;;;;;;1.25;1.00;;;;;44.34;14.72;101914.72;5030541;28;47138;-50
2022/07/10 10:57:31;;;;;;;;;1.00;1.00;;;;;44.81;15.03;101916.66;5028260;28;45352;-50
2022/07/10 10:59:58;;;;;;;;;3.50;1.50;;;;;45.09;14.37;101902.91;5032398;28;45493;-52
2022/07/10 11:02:28;;;;;;;;;0.00;0.00;;;;;45.39;13.44;101898.28;5038753;28;45525;-53
2022/07/10 11:05:18;;;;;;;;;0.00;0.00;;;;;45.10;13.71;101907.38;5030541;28;47408;-52
2022/07/10 11:07:59;;;;;;;;;0.50;0.50;;;;;44.63;13.87;101898.31;5027909;28;45412;-50
2022/07/10 11:10:36;;;;;;;;;2.00;1.00;;;;;44.20;13.79;101899.47;5038315;28;45398;-52
2022/07/10 11:13:02;;;;;;;;;1.00;1.00;;;;;44.22;14.38;101891.81;5027645;28;45218;-48
2022/07/10 11:15:36;;;;;;;;;1.50;1.25;;;;;44.22;13.65;101884.38;5037779;28;46430;-52
2022/07/10 11:18:12;;;;;;;;;0.25;0.25;;;;;44.43;14.03;101877.41;5035262;28;45712;-51
2022/07/10 11:20:44;;;;;;;;;1.25;1.00;;;;;44.77;13.54;101882.31;5034055;28;45402;-52
2022/07/10 11:23:38;;;;;;;;;1.00;1.00;;;;;44.87;13.75;101877.88;5027264;28;45640;-49
2022/07/10 11:26:08;;;;;;;;;0.50;0.25;;;;;44.84;13.64;101883.03;5034530;28;47077;-49
2022/07/10 11:28:36;;;;;;;;;0.50;0.00;;;;;44.63;13.45;101873.47;5033916;28;45860;-50
2022/07/10 11:31:02;;;;;;;;;0.00;0.00;;;;;44.39;14.11;101864.31;5050277;28;45442;-50
2022/07/10 11:33:27;;;;;;;;;1.75;1.00;;;;;44.21;13.85;101868.06;5025786;28;64906;-49